sensor_id;sensor_type;location;lat;lon;timestamp;P1;durP1;ratioP1;P2;durP2;ratioP2
59066;SDS011;44854;50.838;4.438;2023-12-22T00:02:19;16.00;;;4.35;;
59066;SDS011;44854;50.838;4.438;2023-12-22T00:04:45;25.15;;;4.55;;
59066;SDS011;44854;50.838;4.438;2023-12-22T00:07:11;28.25;;;4.88;;
59066;SDS011;44854;50.838;4.438;2023-12-22T00:09:37;22.90;;;3.65;;
59066;SDS011;44854;50.838;4.438;2023-12-22T00:12:03;21.40;;;3.75;;
59066;SDS011;44854;50.838;4.438;2023-12-22T00:14:29;23.30;;;3.55;;
59066;SDS011;44854;50.838;4.438;2023-12-22T00:16:55;25.38;;;3.83;;
59066;SDS011;44854;50.838;4.438;2023-12-22T00:19:20;23.35;;;3.65;;
59066;SDS011;44854;50.838;4.438;2023-12-22T00:21:46;19.98;;;2.45;;
59066;SDS011;44854;50.838;4.438;2023-12-22T00:24:12;21.30;;;3.42;;
59066;SDS011;44854;50.838;4.438;2023-12-22T00:26:37;35.78;;;12.13;;
59066;SDS011;44854;50.838;4.438;2023-12-22T00:29:03;23.08;;;4.05;;
59066;SDS011;44854;50.838;4.438;2023-12-22T00:31:28;14.02;;;3.42;;
59066;SDS011;44854;50.838;4.438;2023-12-22T00:33:54;21.15;;;3.30;;
59066;SDS011;44854;50.838;4.438;2023-12-22T00:36:20;21.48;;;4.15;;
59066;SDS011;44854;50.838;4.438;2023-12-22T00:38:49;12.38;;;2.40;;
59066;SDS011;44854;50.838;4.438;2023-12-22T00:41:15;15.82;;;2.90;;
59066;SDS011;44854;50.838;4.438;2023-12-22T00:43:40;21.23;;;3.45;;
59066;SDS011;44854;50.838;4.438;2023-12-22T00:46:06;18.50;;;3.28;;
59066;SDS011;44854;50.838;4.438;2023-12-22T00:48:32;15.93;;;3.30;;
59066;SDS011;44854;50.838;4.438;2023-12-22T00:50:57;17.23;;;3.15;;
59066;SDS011;44854;50.838;4.438;2023-12-22T00:53:23;23.15;;;3.20;;
59066;SDS011;44854;50.838;4.438;2023-12-22T00:55:48;26.40;;;4.28;;
59066;SDS011;44854;50.838;4.438;2023-12-22T00:58:14;25.48;;;4.18;;
59066;SDS011;44854;50.838;4.438;2023-12-22T01:00:40;25.63;;;4.28;;
59066;SDS011;44854;50.838;4.438;2023-12-22T01:03:05;17.88;;;3.83;;
59066;SDS011;44854;50.838;4.438;2023-12-22T01:05:31;19.88;;;3.58;;
59066;SDS011;44854;50.838;4.438;2023-12-22T01:07:57;15.23;;;3.33;;
59066;SDS011;44854;50.838;4.438;2023-12-22T01:10:23;23.92;;;4.35;;
59066;SDS011;44854;50.838;4.438;2023-12-22T01:12:49;25.42;;;4.55;;
59066;SDS011;44854;50.838;4.438;2023-12-22T01:15:14;24.50;;;4.95;;
59066;SDS011;44854;50.838;4.438;2023-12-22T01:17:40;25.70;;;4.60;;
59066;SDS011;44854;50.838;4.438;2023-12-22T01:20:06;22.65;;;4.60;;
59066;SDS011;44854;50.838;4.438;2023-12-22T01:22:32;22.10;;;4.55;;
59066;SDS011;44854;50.838;4.438;2023-12-22T01:25:03;25.25;;;4.60;;
59066;SDS011;44854;50.838;4.438;2023-12-22T01:27:30;22.25;;;3.65;;
59066;SDS011;44854;50.838;4.438;2023-12-22T01:29:56;20.63;;;4.18;;
59066;SDS011;44854;50.838;4.438;2023-12-22T01:32:21;17.30;;;4.47;;
59066;SDS011;44854;50.838;4.438;2023-12-22T01:34:47;24.30;;;4.70;;
59066;SDS011;44854;50.838;4.438;2023-12-22T01:37:13;23.45;;;3.78;;
59066;SDS011;44854;50.838;4.438;2023-12-22T01:39:39;30.45;;;4.93;;
59066;SDS011;44854;50.838;4.438;2023-12-22T01:42:04;27.73;;;4.82;;
59066;SDS011;44854;50.838;4.438;2023-12-22T01:44:30;25.85;;;5.30;;
59066;SDS011;44854;50.838;4.438;2023-12-22T01:46:56;25.25;;;4.07;;
59066;SDS011;44854;50.838;4.438;2023-12-22T01:49:22;24.10;;;5.03;;
59066;SDS011;44854;50.838;4.438;2023-12-22T01:51:48;28.23;;;4.80;;
59066;SDS011;44854;50.838;4.438;2023-12-22T01:54:14;18.92;;;3.92;;
59066;SDS011;44854;50.838;4.438;2023-12-22T01:56:41;28.25;;;5.82;;
59066;SDS011;44854;50.838;4.438;2023-12-22T01:59:07;23.45;;;4.50;;
59066;SDS011;44854;50.838;4.438;2023-12-22T02:01:33;29.27;;;5.35;;
59066;SDS011;44854;50.838;4.438;2023-12-22T02:03:59;24.85;;;4.47;;
59066;SDS011;44854;50.838;4.438;2023-12-22T02:06:25;28.88;;;5.60;;
59066;SDS011;44854;50.838;4.438;2023-12-22T02:08:51;36.05;;;5.13;;
59066;SDS011;44854;50.838;4.438;2023-12-22T02:11:18;25.58;;;5.15;;
59066;SDS011;44854;50.838;4.438;2023-12-22T02:13:44;25.83;;;5.25;;
59066;SDS011;44854;50.838;4.438;2023-12-22T02:18:55;26.50;;;4.32;;
59066;SDS011;44854;50.838;4.438;2023-12-22T02:21:22;32.25;;;4.45;;
59066;SDS011;44854;50.838;4.438;2023-12-22T02:23:48;29.67;;;4.95;;
59066;SDS011;44854;50.838;4.438;2023-12-22T02:29:05;22.95;;;5.28;;
59066;SDS011;44854;50.838;4.438;2023-12-22T02:34:05;25.00;;;5.85;;
59066;SDS011;44854;50.838;4.438;2023-12-22T02:36:35;21.75;;;4.55;;
59066;SDS011;44854;50.838;4.438;2023-12-22T02:39:03;26.92;;;4.82;;
59066;SDS011;44854;50.838;4.438;2023-12-22T02:41:30;22.00;;;3.72;;
59066;SDS011;44854;50.838;4.438;2023-12-22T02:43:56;20.70;;;3.92;;
59066;SDS011;44854;50.838;4.438;2023-12-22T02:46:23;22.27;;;3.80;;
59066;SDS011;44854;50.838;4.438;2023-12-22T02:51:15;21.10;;;5.28;;
59066;SDS011;44854;50.838;4.438;2023-12-22T02:53:41;21.38;;;3.13;;
59066;SDS011;44854;50.838;4.438;2023-12-22T02:56:07;17.63;;;3.47;;
59066;SDS011;44854;50.838;4.438;2023-12-22T02:58:32;18.15;;;2.42;;
59066;SDS011;44854;50.838;4.438;2023-12-22T03:00:58;13.50;;;2.97;;
59066;SDS011;44854;50.838;4.438;2023-12-22T03:03:24;14.93;;;2.67;;
59066;SDS011;44854;50.838;4.438;2023-12-22T03:05:49;14.13;;;3.42;;
59066;SDS011;44854;50.838;4.438;2023-12-22T03:08:15;13.07;;;2.72;;
59066;SDS011;44854;50.838;4.438;2023-12-22T03:10:41;20.63;;;2.55;;
59066;SDS011;44854;50.838;4.438;2023-12-22T03:13:06;10.98;;;2.80;;
59066;SDS011;44854;50.838;4.438;2023-12-22T03:15:32;13.55;;;2.05;;
59066;SDS011;44854;50.838;4.438;2023-12-22T03:17:58;15.07;;;2.95;;
59066;SDS011;44854;50.838;4.438;2023-12-22T03:20:23;17.13;;;3.15;;
59066;SDS011;44854;50.838;4.438;2023-12-22T03:22:49;14.15;;;3.92;;
59066;SDS011;44854;50.838;4.438;2023-12-22T03:25:15;22.20;;;3.35;;
59066;SDS011;44854;50.838;4.438;2023-12-22T03:27:40;17.00;;;3.20;;
59066;SDS011;44854;50.838;4.438;2023-12-22T03:30:06;22.08;;;4.38;;
59066;SDS011;44854;50.838;4.438;2023-12-22T03:32:32;28.80;;;4.50;;
59066;SDS011;44854;50.838;4.438;2023-12-22T03:34:58;22.27;;;3.70;;
59066;SDS011;44854;50.838;4.438;2023-12-22T03:37:23;20.75;;;4.13;;
59066;SDS011;44854;50.838;4.438;2023-12-22T03:39:49;28.38;;;4.93;;
59066;SDS011;44854;50.838;4.438;2023-12-22T03:42:15;23.73;;;4.32;;
59066;SDS011;44854;50.838;4.438;2023-12-22T03:44:40;27.70;;;5.25;;
59066;SDS011;44854;50.838;4.438;2023-12-22T03:47:06;26.85;;;4.53;;
59066;SDS011;44854;50.838;4.438;2023-12-22T03:49:32;23.13;;;3.97;;
59066;SDS011;44854;50.838;4.438;2023-12-22T03:51:58;21.45;;;4.85;;
59066;SDS011;44854;50.838;4.438;2023-12-22T03:54:23;22.70;;;4.47;;
59066;SDS011;44854;50.838;4.438;2023-12-22T03:56:49;16.15;;;3.38;;
59066;SDS011;44854;50.838;4.438;2023-12-22T03:59:15;23.38;;;4.05;;
59066;SDS011;44854;50.838;4.438;2023-12-22T04:01:43;23.05;;;3.83;;
59066;SDS011;44854;50.838;4.438;2023-12-22T04:04:09;19.83;;;3.95;;
59066;SDS011;44854;50.838;4.438;2023-12-22T04:06:38;18.60;;;3.28;;
59066;SDS011;44854;50.838;4.438;2023-12-22T04:09:05;21.65;;;4.15;;
59066;SDS011;44854;50.838;4.438;2023-12-22T04:11:31;22.92;;;4.72;;
59066;SDS011;44854;50.838;4.438;2023-12-22T04:13:57;24.38;;;4.75;;
59066;SDS011;44854;50.838;4.438;2023-12-22T04:16:23;18.65;;;2.83;;
59066;SDS011;44854;50.838;4.438;2023-12-22T04:18:48;22.73;;;3.95;;
59066;SDS011;44854;50.838;4.438;2023-12-22T04:21:14;19.20;;;4.72;;
59066;SDS011;44854;50.838;4.438;2023-12-22T04:23:40;30.40;;;4.68;;
59066;SDS011;44854;50.838;4.438;2023-12-22T04:26:05;20.92;;;4.05;;
59066;SDS011;44854;50.838;4.438;2023-12-22T04:28:31;27.20;;;4.95;;
59066;SDS011;44854;50.838;4.438;2023-12-22T04:30:57;23.33;;;4.68;;
59066;SDS011;44854;50.838;4.438;2023-12-22T04:33:22;21.02;;;5.93;;
59066;SDS011;44854;50.838;4.438;2023-12-22T04:35:48;28.15;;;4.97;;
59066;SDS011;44854;50.838;4.438;2023-12-22T04:38:14;38.65;;;5.20;;
59066;SDS011;44854;50.838;4.438;2023-12-22T04:40:39;27.42;;;5.32;;
59066;SDS011;44854;50.838;4.438;2023-12-22T04:43:05;36.22;;;5.47;;
59066;SDS011;44854;50.838;4.438;2023-12-22T04:45:31;30.42;;;5.85;;
59066;SDS011;44854;50.838;4.438;2023-12-22T04:47:56;37.33;;;6.63;;
59066;SDS011;44854;50.838;4.438;2023-12-22T04:50:22;27.90;;;5.40;;
59066;SDS011;44854;50.838;4.438;2023-12-22T04:52:48;43.25;;;6.95;;
59066;SDS011;44854;50.838;4.438;2023-12-22T04:55:14;38.85;;;5.60;;
59066;SDS011;44854;50.838;4.438;2023-12-22T04:57:40;34.53;;;6.18;;
59066;SDS011;44854;50.838;4.438;2023-12-22T05:00:06;44.65;;;6.50;;
59066;SDS011;44854;50.838;4.438;2023-12-22T05:02:32;37.88;;;5.22;;
59066;SDS011;44854;50.838;4.438;2023-12-22T05:04:58;30.38;;;5.60;;
59066;SDS011;44854;50.838;4.438;2023-12-22T05:07:23;27.08;;;5.13;;
59066;SDS011;44854;50.838;4.438;2023-12-22T05:09:49;27.90;;;5.45;;
59066;SDS011;44854;50.838;4.438;2023-12-22T05:12:17;36.25;;;6.18;;
59066;SDS011;44854;50.838;4.438;2023-12-22T05:14:42;37.13;;;6.25;;
59066;SDS011;44854;50.838;4.438;2023-12-22T05:17:08;27.75;;;5.07;;
59066;SDS011;44854;50.838;4.438;2023-12-22T05:19:34;34.97;;;6.40;;
59066;SDS011;44854;50.838;4.438;2023-12-22T05:21:59;26.63;;;5.05;;
59066;SDS011;44854;50.838;4.438;2023-12-22T05:24:25;34.85;;;6.13;;
59066;SDS011;44854;50.838;4.438;2023-12-22T05:26:52;44.75;;;8.02;;
59066;SDS011;44854;50.838;4.438;2023-12-22T05:29:18;43.40;;;6.85;;
59066;SDS011;44854;50.838;4.438;2023-12-22T05:31:44;41.92;;;6.55;;
59066;SDS011;44854;50.838;4.438;2023-12-22T05:34:10;41.83;;;6.93;;
59066;SDS011;44854;50.838;4.438;2023-12-22T05:36:36;41.20;;;6.95;;
59066;SDS011;44854;50.838;4.438;2023-12-22T05:39:01;46.25;;;7.75;;
59066;SDS011;44854;50.838;4.438;2023-12-22T05:41:27;37.15;;;6.45;;
59066;SDS011;44854;50.838;4.438;2023-12-22T05:43:53;36.88;;;6.25;;
59066;SDS011;44854;50.838;4.438;2023-12-22T05:46:19;33.88;;;6.10;;
59066;SDS011;44854;50.838;4.438;2023-12-22T05:48:45;44.95;;;7.68;;
59066;SDS011;44854;50.838;4.438;2023-12-22T05:51:11;44.42;;;6.97;;
59066;SDS011;44854;50.838;4.438;2023-12-22T05:53:39;36.58;;;6.63;;
59066;SDS011;44854;50.838;4.438;2023-12-22T05:56:16;40.00;;;6.35;;
59066;SDS011;44854;50.838;4.438;2023-12-22T05:58:43;36.55;;;7.57;;
59066;SDS011;44854;50.838;4.438;2023-12-22T06:01:13;30.42;;;5.32;;
59066;SDS011;44854;50.838;4.438;2023-12-22T06:03:40;34.50;;;7.05;;
59066;SDS011;44854;50.838;4.438;2023-12-22T06:06:06;41.28;;;5.97;;
59066;SDS011;44854;50.838;4.438;2023-12-22T06:08:32;30.95;;;5.97;;
59066;SDS011;44854;50.838;4.438;2023-12-22T06:10:57;33.08;;;6.43;;
59066;SDS011;44854;50.838;4.438;2023-12-22T06:13:23;36.08;;;5.82;;
59066;SDS011;44854;50.838;4.438;2023-12-22T06:15:49;37.92;;;5.88;;
59066;SDS011;44854;50.838;4.438;2023-12-22T06:18:15;38.97;;;7.13;;
59066;SDS011;44854;50.838;4.438;2023-12-22T06:20:40;41.90;;;6.30;;
59066;SDS011;44854;50.838;4.438;2023-12-22T06:23:06;29.55;;;6.15;;
59066;SDS011;44854;50.838;4.438;2023-12-22T06:25:32;28.38;;;4.93;;
59066;SDS011;44854;50.838;4.438;2023-12-22T06:27:57;29.30;;;4.97;;
59066;SDS011;44854;50.838;4.438;2023-12-22T06:30:23;30.42;;;5.97;;
59066;SDS011;44854;50.838;4.438;2023-12-22T06:32:49;34.55;;;5.57;;
59066;SDS011;44854;50.838;4.438;2023-12-22T06:35:14;33.42;;;5.30;;
59066;SDS011;44854;50.838;4.438;2023-12-22T06:37:40;30.15;;;4.20;;
59066;SDS011;44854;50.838;4.438;2023-12-22T06:40:06;28.77;;;4.75;;
59066;SDS011;44854;50.838;4.438;2023-12-22T06:42:32;30.15;;;4.57;;
59066;SDS011;44854;50.838;4.438;2023-12-22T06:44:57;27.83;;;4.65;;
59066;SDS011;44854;50.838;4.438;2023-12-22T06:47:23;27.05;;;4.47;;
59066;SDS011;44854;50.838;4.438;2023-12-22T06:49:49;20.33;;;3.88;;
59066;SDS011;44854;50.838;4.438;2023-12-22T06:52:14;21.48;;;3.80;;
59066;SDS011;44854;50.838;4.438;2023-12-22T06:54:41;18.75;;;4.30;;
59066;SDS011;44854;50.838;4.438;2023-12-22T06:57:06;21.33;;;4.32;;
59066;SDS011;44854;50.838;4.438;2023-12-22T06:59:32;20.77;;;4.43;;
59066;SDS011;44854;50.838;4.438;2023-12-22T07:01:58;13.32;;;3.33;;
59066;SDS011;44854;50.838;4.438;2023-12-22T07:04:24;22.33;;;3.45;;
59066;SDS011;44854;50.838;4.438;2023-12-22T07:06:49;16.13;;;3.70;;
59066;SDS011;44854;50.838;4.438;2023-12-22T07:11:42;14.00;;;3.40;;
59066;SDS011;44854;50.838;4.438;2023-12-22T07:14:13;21.25;;;4.45;;
59066;SDS011;44854;50.838;4.438;2023-12-22T07:16:39;19.42;;;4.20;;
59066;SDS011;44854;50.838;4.438;2023-12-22T07:19:04;16.33;;;3.13;;
59066;SDS011;44854;50.838;4.438;2023-12-22T07:21:30;13.70;;;2.80;;
59066;SDS011;44854;50.838;4.438;2023-12-22T07:23:56;15.02;;;3.13;;
59066;SDS011;44854;50.838;4.438;2023-12-22T07:26:23;13.55;;;2.63;;
59066;SDS011;44854;50.838;4.438;2023-12-22T07:28:51;17.50;;;2.45;;
59066;SDS011;44854;50.838;4.438;2023-12-22T07:31:17;16.65;;;2.88;;
59066;SDS011;44854;50.838;4.438;2023-12-22T07:33:43;10.48;;;2.67;;
59066;SDS011;44854;50.838;4.438;2023-12-22T07:36:09;12.88;;;2.80;;
59066;SDS011;44854;50.838;4.438;2023-12-22T07:38:35;11.80;;;2.88;;
59066;SDS011;44854;50.838;4.438;2023-12-22T07:41:01;9.10;;;2.00;;
59066;SDS011;44854;50.838;4.438;2023-12-22T07:43:27;9.85;;;2.45;;
59066;SDS011;44854;50.838;4.438;2023-12-22T07:45:54;13.25;;;2.72;;
59066;SDS011;44854;50.838;4.438;2023-12-22T07:48:20;13.75;;;3.13;;
59066;SDS011;44854;50.838;4.438;2023-12-22T07:50:46;10.00;;;2.45;;
59066;SDS011;44854;50.838;4.438;2023-12-22T07:53:12;8.32;;;2.20;;
59066;SDS011;44854;50.838;4.438;2023-12-22T07:55:37;10.88;;;2.42;;
59066;SDS011;44854;50.838;4.438;2023-12-22T07:58:04;8.82;;;2.10;;
59066;SDS011;44854;50.838;4.438;2023-12-22T08:00:30;7.90;;;2.30;;
59066;SDS011;44854;50.838;4.438;2023-12-22T08:02:57;8.45;;;1.73;;
59066;SDS011;44854;50.838;4.438;2023-12-22T08:05:23;6.60;;;2.08;;
59066;SDS011;44854;50.838;4.438;2023-12-22T08:07:49;7.38;;;2.22;;
59066;SDS011;44854;50.838;4.438;2023-12-22T08:10:14;6.28;;;1.83;;
59066;SDS011;44854;50.838;4.438;2023-12-22T08:12:41;5.22;;;2.03;;
59066;SDS011;44854;50.838;4.438;2023-12-22T08:15:07;6.97;;;1.98;;
59066;SDS011;44854;50.838;4.438;2023-12-22T08:17:49;4.63;;;1.88;;
59066;SDS011;44854;50.838;4.438;2023-12-22T08:20:17;5.20;;;2.10;;
59066;SDS011;44854;50.838;4.438;2023-12-22T08:22:45;6.57;;;2.10;;
59066;SDS011;44854;50.838;4.438;2023-12-22T08:25:11;5.00;;;2.22;;
59066;SDS011;44854;50.838;4.438;2023-12-22T08:27:36;7.35;;;2.67;;
59066;SDS011;44854;50.838;4.438;2023-12-22T08:30:02;6.32;;;2.70;;
59066;SDS011;44854;50.838;4.438;2023-12-22T08:32:28;5.03;;;2.28;;
59066;SDS011;44854;50.838;4.438;2023-12-22T08:34:54;9.30;;;3.17;;
59066;SDS011;44854;50.838;4.438;2023-12-22T08:37:20;8.82;;;2.70;;
59066;SDS011;44854;50.838;4.438;2023-12-22T08:39:45;4.82;;;3.42;;
59066;SDS011;44854;50.838;4.438;2023-12-22T08:42:11;8.45;;;2.65;;
59066;SDS011;44854;50.838;4.438;2023-12-22T08:44:37;8.88;;;3.60;;
59066;SDS011;44854;50.838;4.438;2023-12-22T08:47:03;7.78;;;3.28;;
59066;SDS011;44854;50.838;4.438;2023-12-22T08:49:28;7.15;;;3.25;;
59066;SDS011;44854;50.838;4.438;2023-12-22T08:51:54;7.13;;;3.30;;
59066;SDS011;44854;50.838;4.438;2023-12-22T08:54:19;5.90;;;3.47;;
59066;SDS011;44854;50.838;4.438;2023-12-22T08:56:45;7.68;;;3.95;;
59066;SDS011;44854;50.838;4.438;2023-12-22T08:59:11;24.48;;;21.95;;
59066;SDS011;44854;50.838;4.438;2023-12-22T09:01:37;8.48;;;4.10;;
59066;SDS011;44854;50.838;4.438;2023-12-22T09:04:03;12.38;;;4.43;;
59066;SDS011;44854;50.838;4.438;2023-12-22T09:06:28;9.93;;;4.28;;
59066;SDS011;44854;50.838;4.438;2023-12-22T09:08:54;8.95;;;4.53;;
59066;SDS011;44854;50.838;4.438;2023-12-22T09:11:21;9.68;;;4.53;;
59066;SDS011;44854;50.838;4.438;2023-12-22T09:13:47;8.38;;;4.00;;
59066;SDS011;44854;50.838;4.438;2023-12-22T09:16:13;9.70;;;4.22;;
59066;SDS011;44854;50.838;4.438;2023-12-22T09:18:41;14.48;;;3.95;;
59066;SDS011;44854;50.838;4.438;2023-12-22T09:21:09;11.27;;;3.38;;
59066;SDS011;44854;50.838;4.438;2023-12-22T09:23:35;13.32;;;4.57;;
59066;SDS011;44854;50.838;4.438;2023-12-22T09:26:00;9.95;;;3.70;;
59066;SDS011;44854;50.838;4.438;2023-12-22T09:28:26;14.45;;;5.00;;
59066;SDS011;44854;50.838;4.438;2023-12-22T09:30:52;5.65;;;3.17;;
59066;SDS011;44854;50.838;4.438;2023-12-22T09:33:17;10.73;;;3.17;;
59066;SDS011;44854;50.838;4.438;2023-12-22T09:35:44;8.68;;;3.03;;
59066;SDS011;44854;50.838;4.438;2023-12-22T09:38:11;6.80;;;2.70;;
59066;SDS011;44854;50.838;4.438;2023-12-22T09:40:40;6.20;;;2.30;;
59066;SDS011;44854;50.838;4.438;2023-12-22T09:43:07;10.30;;;2.45;;
59066;SDS011;44854;50.838;4.438;2023-12-22T09:45:34;9.70;;;2.42;;
59066;SDS011;44854;50.838;4.438;2023-12-22T09:48:01;6.72;;;2.17;;
59066;SDS011;44854;50.838;4.438;2023-12-22T09:50:28;6.35;;;3.13;;
59066;SDS011;44854;50.838;4.438;2023-12-22T09:52:55;9.05;;;2.13;;
59066;SDS011;44854;50.838;4.438;2023-12-22T09:55:21;5.38;;;2.60;;
59066;SDS011;44854;50.838;4.438;2023-12-22T09:57:49;9.32;;;2.40;;
59066;SDS011;44854;50.838;4.438;2023-12-22T10:00:16;11.77;;;2.30;;
59066;SDS011;44854;50.838;4.438;2023-12-22T10:02:43;6.45;;;2.40;;
59066;SDS011;44854;50.838;4.438;2023-12-22T10:05:10;7.65;;;2.08;;
59066;SDS011;44854;50.838;4.438;2023-12-22T10:07:38;4.88;;;1.70;;
59066;SDS011;44854;50.838;4.438;2023-12-22T10:10:04;7.72;;;1.90;;
59066;SDS011;44854;50.838;4.438;2023-12-22T10:12:31;7.93;;;2.28;;
59066;SDS011;44854;50.838;4.438;2023-12-22T10:14:59;6.03;;;2.10;;
59066;SDS011;44854;50.838;4.438;2023-12-22T10:17:26;5.93;;;2.15;;
59066;SDS011;44854;50.838;4.438;2023-12-22T10:19:52;6.88;;;2.60;;
59066;SDS011;44854;50.838;4.438;2023-12-22T10:22:18;4.63;;;2.20;;
59066;SDS011;44854;50.838;4.438;2023-12-22T10:24:44;7.50;;;2.10;;
59066;SDS011;44854;50.838;4.438;2023-12-22T10:27:15;8.77;;;3.10;;
59066;SDS011;44854;50.838;4.438;2023-12-22T10:29:47;10.65;;;2.53;;
59066;SDS011;44854;50.838;4.438;2023-12-22T10:32:13;5.43;;;2.30;;
59066;SDS011;44854;50.838;4.438;2023-12-22T10:34:39;7.63;;;2.50;;
59066;SDS011;44854;50.838;4.438;2023-12-22T10:37:05;7.70;;;2.08;;
59066;SDS011;44854;50.838;4.438;2023-12-22T10:39:30;5.38;;;2.45;;
59066;SDS011;44854;50.838;4.438;2023-12-22T10:41:57;5.78;;;3.17;;
59066;SDS011;44854;50.838;4.438;2023-12-22T10:44:24;5.63;;;2.42;;
59066;SDS011;44854;50.838;4.438;2023-12-22T10:46:51;4.75;;;2.17;;
59066;SDS011;44854;50.838;4.438;2023-12-22T10:49:18;11.68;;;2.83;;
59066;SDS011;44854;50.838;4.438;2023-12-22T10:51:44;10.63;;;2.95;;
59066;SDS011;44854;50.838;4.438;2023-12-22T10:54:09;6.15;;;2.22;;
59066;SDS011;44854;50.838;4.438;2023-12-22T10:56:35;7.03;;;2.72;;
59066;SDS011;44854;50.838;4.438;2023-12-22T10:59:02;7.22;;;1.90;;
59066;SDS011;44854;50.838;4.438;2023-12-22T11:01:31;9.40;;;2.15;;
59066;SDS011;44854;50.838;4.438;2023-12-22T11:04:03;6.60;;;2.35;;
59066;SDS011;44854;50.838;4.438;2023-12-22T11:06:35;7.60;;;2.72;;
59066;SDS011;44854;50.838;4.438;2023-12-22T11:09:08;11.15;;;2.42;;
59066;SDS011;44854;50.838;4.438;2023-12-22T11:11:38;5.40;;;1.60;;
59066;SDS011;44854;50.838;4.438;2023-12-22T11:14:05;5.60;;;2.35;;
59066;SDS011;44854;50.838;4.438;2023-12-22T11:16:35;5.65;;;2.60;;
59066;SDS011;44854;50.838;4.438;2023-12-22T11:19:02;7.03;;;1.98;;
59066;SDS011;44854;50.838;4.438;2023-12-22T11:21:28;7.07;;;2.33;;
59066;SDS011;44854;50.838;4.438;2023-12-22T11:23:54;7.72;;;1.90;;
59066;SDS011;44854;50.838;4.438;2023-12-22T11:26:22;5.20;;;1.70;;
59066;SDS011;44854;50.838;4.438;2023-12-22T11:28:49;6.40;;;2.22;;
59066;SDS011;44854;50.838;4.438;2023-12-22T11:31:16;7.35;;;2.05;;
59066;SDS011;44854;50.838;4.438;2023-12-22T11:33:49;3.95;;;1.70;;
59066;SDS011;44854;50.838;4.438;2023-12-22T11:36:16;7.60;;;1.83;;
59066;SDS011;44854;50.838;4.438;2023-12-22T11:38:45;7.13;;;1.73;;
59066;SDS011;44854;50.838;4.438;2023-12-22T11:41:19;5.40;;;2.17;;
59066;SDS011;44854;50.838;4.438;2023-12-22T11:43:54;4.07;;;1.50;;
59066;SDS011;44854;50.838;4.438;2023-12-22T11:46:22;6.05;;;1.60;;
59066;SDS011;44854;50.838;4.438;2023-12-22T11:48:52;4.55;;;1.38;;
59066;SDS011;44854;50.838;4.438;2023-12-22T11:51:18;5.72;;;1.67;;
59066;SDS011;44854;50.838;4.438;2023-12-22T11:53:45;5.95;;;1.45;;
59066;SDS011;44854;50.838;4.438;2023-12-22T11:56:11;8.35;;;1.95;;
59066;SDS011;44854;50.838;4.438;2023-12-22T11:58:41;4.95;;;1.98;;
59066;SDS011;44854;50.838;4.438;2023-12-22T12:01:19;5.55;;;1.98;;
59066;SDS011;44854;50.838;4.438;2023-12-22T12:08:58;4.88;;;2.13;;
59066;SDS011;44854;50.838;4.438;2023-12-22T12:16:46;3.40;;;1.60;;
59066;SDS011;44854;50.838;4.438;2023-12-22T12:19:12;3.58;;;1.23;;
59066;SDS011;44854;50.838;4.438;2023-12-22T12:21:39;6.50;;;1.52;;
59066;SDS011;44854;50.838;4.438;2023-12-22T12:24:05;4.70;;;1.23;;
59066;SDS011;44854;50.838;4.438;2023-12-22T12:26:32;3.42;;;1.63;;
59066;SDS011;44854;50.838;4.438;2023-12-22T12:28:59;6.90;;;1.83;;
59066;SDS011;44854;50.838;4.438;2023-12-22T12:31:45;5.60;;;1.40;;
59066;SDS011;44854;50.838;4.438;2023-12-22T12:34:10;7.57;;;1.88;;
59066;SDS011;44854;50.838;4.438;2023-12-22T12:36:36;8.55;;;1.55;;
59066;SDS011;44854;50.838;4.438;2023-12-22T12:39:07;8.45;;;1.40;;
59066;SDS011;44854;50.838;4.438;2023-12-22T12:41:38;9.55;;;1.92;;
59066;SDS011;44854;50.838;4.438;2023-12-22T12:44:07;10.25;;;2.13;;
59066;SDS011;44854;50.838;4.438;2023-12-22T12:46:35;4.30;;;0.98;;
59066;SDS011;44854;50.838;4.438;2023-12-22T12:49:06;5.60;;;1.80;;
59066;SDS011;44854;50.838;4.438;2023-12-22T12:51:38;8.80;;;1.52;;
59066;SDS011;44854;50.838;4.438;2023-12-22T12:54:05;6.10;;;1.63;;
59066;SDS011;44854;50.838;4.438;2023-12-22T12:56:38;10.43;;;1.33;;
59066;SDS011;44854;50.838;4.438;2023-12-22T12:59:11;3.53;;;1.20;;
59066;SDS011;44854;50.838;4.438;2023-12-22T13:01:42;7.28;;;1.80;;
59066;SDS011;44854;50.838;4.438;2023-12-22T13:04:09;11.25;;;2.00;;
59066;SDS011;44854;50.838;4.438;2023-12-22T13:06:35;4.47;;;1.57;;
59066;SDS011;44854;50.838;4.438;2023-12-22T13:09:08;4.93;;;1.40;;
59066;SDS011;44854;50.838;4.438;2023-12-22T13:11:34;10.45;;;1.60;;
59066;SDS011;44854;50.838;4.438;2023-12-22T13:14:01;7.53;;;1.90;;
59066;SDS011;44854;50.838;4.438;2023-12-22T13:16:28;8.40;;;1.63;;
59066;SDS011;44854;50.838;4.438;2023-12-22T13:21:24;6.45;;;1.77;;
59066;SDS011;44854;50.838;4.438;2023-12-22T13:26:45;5.95;;;1.40;;
59066;SDS011;44854;50.838;4.438;2023-12-22T13:29:11;9.52;;;2.15;;
59066;SDS011;44854;50.838;4.438;2023-12-22T13:31:39;12.95;;;1.98;;
59066;SDS011;44854;50.838;4.438;2023-12-22T13:36:35;8.25;;;2.15;;
59066;SDS011;44854;50.838;4.438;2023-12-22T13:39:07;5.15;;;1.23;;
59066;SDS011;44854;50.838;4.438;2023-12-22T13:41:34;6.80;;;1.27;;
59066;SDS011;44854;50.838;4.438;2023-12-22T13:44:06;3.35;;;1.20;;
59066;SDS011;44854;50.838;4.438;2023-12-22T13:46:32;7.60;;;1.52;;
59066;SDS011;44854;50.838;4.438;2023-12-22T13:49:01;5.63;;;1.50;;
59066;SDS011;44854;50.838;4.438;2023-12-22T13:51:38;8.85;;;1.67;;
59066;SDS011;44854;50.838;4.438;2023-12-22T13:54:12;9.05;;;2.33;;
59066;SDS011;44854;50.838;4.438;2023-12-22T13:56:39;3.97;;;1.05;;
59066;SDS011;44854;50.838;4.438;2023-12-22T13:59:06;5.35;;;1.48;;
59066;SDS011;44854;50.838;4.438;2023-12-22T14:01:31;9.82;;;1.80;;
59066;SDS011;44854;50.838;4.438;2023-12-22T14:03:58;9.32;;;2.03;;
59066;SDS011;44854;50.838;4.438;2023-12-22T14:06:27;3.60;;;1.20;;
59066;SDS011;44854;50.838;4.438;2023-12-22T14:08:54;4.75;;;1.50;;
59066;SDS011;44854;50.838;4.438;2023-12-22T14:11:20;5.00;;;1.35;;
59066;SDS011;44854;50.838;4.438;2023-12-22T14:13:46;12.30;;;1.92;;
59066;SDS011;44854;50.838;4.438;2023-12-22T14:16:12;7.65;;;1.95;;
59066;SDS011;44854;50.838;4.438;2023-12-22T14:18:38;9.23;;;1.65;;
59066;SDS011;44854;50.838;4.438;2023-12-22T14:21:04;5.90;;;1.75;;
59066;SDS011;44854;50.838;4.438;2023-12-22T14:23:30;5.03;;;1.10;;
59066;SDS011;44854;50.838;4.438;2023-12-22T14:25:56;6.45;;;1.40;;
59066;SDS011;44854;50.838;4.438;2023-12-22T14:28:22;6.65;;;1.88;;
59066;SDS011;44854;50.838;4.438;2023-12-22T14:30:48;6.75;;;1.98;;
59066;SDS011;44854;50.838;4.438;2023-12-22T14:33:14;4.28;;;1.40;;
59066;SDS011;44854;50.838;4.438;2023-12-22T14:35:40;8.93;;;2.03;;
59066;SDS011;44854;50.838;4.438;2023-12-22T14:38:06;5.15;;;1.58;;
59066;SDS011;44854;50.838;4.438;2023-12-22T14:40:32;9.43;;;1.77;;
59066;SDS011;44854;50.838;4.438;2023-12-22T14:42:58;2.75;;;1.30;;
59066;SDS011;44854;50.838;4.438;2023-12-22T14:45:24;6.70;;;1.52;;
59066;SDS011;44854;50.838;4.438;2023-12-22T14:47:50;7.43;;;1.70;;
59066;SDS011;44854;50.838;4.438;2023-12-22T14:50:16;6.85;;;1.48;;
59066;SDS011;44854;50.838;4.438;2023-12-22T14:52:42;9.90;;;1.58;;
59066;SDS011;44854;50.838;4.438;2023-12-22T14:55:08;6.68;;;1.67;;
59066;SDS011;44854;50.838;4.438;2023-12-22T14:57:34;10.38;;;1.63;;
59066;SDS011;44854;50.838;4.438;2023-12-22T14:59:59;5.80;;;1.67;;
59066;SDS011;44854;50.838;4.438;2023-12-22T15:02:25;4.88;;;1.42;;
59066;SDS011;44854;50.838;4.438;2023-12-22T15:04:51;7.95;;;1.75;;
59066;SDS011;44854;50.838;4.438;2023-12-22T15:07:17;3.65;;;1.27;;
59066;SDS011;44854;50.838;4.438;2023-12-22T15:09:44;9.35;;;2.38;;